sensor_id;sensor_type;location;lat;lon;timestamp;pressure;altitude;pressure_sealevel;temperature;humidity
22862;BME280;11598;50.652;6.172;2024-01-11T00:08:59;97594.94;;;-5.99;100.00
22862;BME280;11598;50.652;6.172;2024-01-11T00:19:00;97583.13;;;-5.95;100.00
22862;BME280;11598;50.652;6.172;2024-01-11T00:29:00;97588.09;;;-6.09;100.00
22862;BME280;11598;50.652;6.172;2024-01-11T00:39:01;97590.53;;;-6.17;100.00
22862;BME280;11598;50.652;6.172;2024-01-11T00:49:01;97585.63;;;-6.04;100.00
22862;BME280;11598;50.652;6.172;2024-01-11T00:59:03;97603.91;;;-6.28;100.00
22862;BME280;11598;50.652;6.172;2024-01-11T01:09:03;97594.66;;;-6.28;100.00
22862;BME280;11598;50.652;6.172;2024-01-11T01:19:03;97589.81;;;-6.06;100.00
22862;BME280;11598;50.652;6.172;2024-01-11T01:29:04;97588.19;;;-5.95;100.00
22862;BME280;11598;50.652;6.172;2024-01-11T01:39:05;97599.16;;;-5.99;100.00
22862;BME280;11598;50.652;6.172;2024-01-11T01:49:06;97618.44;;;-6.07;100.00
22862;BME280;11598;50.652;6.172;2024-01-11T01:59:06;97618.53;;;-6.01;100.00
22862;BME280;11598;50.652;6.172;2024-01-11T02:09:09;97614.31;;;-6.01;100.00
22862;BME280;11598;50.652;6.172;2024-01-11T02:19:14;97617.59;;;-6.11;100.00
22862;BME280;11598;50.652;6.172;2024-01-11T02:29:17;97623.47;;;-6.13;100.00
22862;BME280;11598;50.652;6.172;2024-01-11T02:39:19;97628.44;;;-6.20;100.00
22862;BME280;11598;50.652;6.172;2024-01-11T02:49:19;97621.63;;;-6.27;100.00
22862;BME280;11598;50.652;6.172;2024-01-11T02:59:20;97630.16;;;-6.17;100.00
22862;BME280;11598;50.652;6.172;2024-01-11T03:09:21;97620.91;;;-6.18;100.00
22862;BME280;11598;50.652;6.172;2024-01-11T03:19:21;97619.09;;;-6.30;100.00
22862;BME280;11598;50.652;6.172;2024-01-11T03:29:21;97619.09;;;-6.30;100.00
22862;BME280;11598;50.652;6.172;2024-01-11T03:39:22;97598.09;;;-6.23;100.00
22862;BME280;11598;50.652;6.172;2024-01-11T03:49:22;97593.88;;;-6.21;100.00
22862;BME280;11598;50.652;6.172;2024-01-11T03:59:23;97595.63;;;-6.12;100.00
22862;BME280;11598;50.652;6.172;2024-01-11T04:09:23;97604.91;;;-6.12;100.00
22862;BME280;11598;50.652;6.172;2024-01-11T04:19:23;97604.97;;;-6.05;100.00
22862;BME280;11598;50.652;6.172;2024-01-11T04:29:24;97619.41;;;-5.93;100.00
22862;BME280;11598;50.652;6.172;2024-01-11T04:39:24;97630.41;;;-5.88;100.00
22862;BME280;11598;50.652;6.172;2024-01-11T04:49:25;97628.78;;;-5.81;100.00
22862;BME280;11598;50.652;6.172;2024-01-11T04:59:25;97622.06;;;-5.79;100.00
22862;BME280;11598;50.652;6.172;2024-01-11T05:09:25;97623.78;;;-5.75;100.00
22862;BME280;11598;50.652;6.172;2024-01-11T05:19:26;97626.34;;;-5.72;100.00
22862;BME280;11598;50.652;6.172;2024-01-11T05:29:26;97649.22;;;-5.64;100.00
22862;BME280;11598;50.652;6.172;2024-01-11T05:39:26;97667.81;;;-5.56;100.00
22862;BME280;11598;50.652;6.172;2024-01-11T05:49:27;97697.41;;;-5.50;100.00
22862;BME280;11598;50.652;6.172;2024-01-11T05:59:27;97709.50;;;-5.22;100.00
22862;BME280;11598;50.652;6.172;2024-01-11T06:09:27;97714.75;;;-4.96;100.00
22862;BME280;11598;50.652;6.172;2024-01-11T06:19:28;97717.31;;;-4.90;100.00
22862;BME280;11598;50.652;6.172;2024-01-11T06:29:28;97715.66;;;-4.89;99.69
22862;BME280;11598;50.652;6.172;2024-01-11T06:39:29;97738.31;;;-5.04;99.38
22862;BME280;11598;50.652;6.172;2024-01-11T06:49:33;97728.06;;;-5.21;99.44
22862;BME280;11598;50.652;6.172;2024-01-11T06:59:33;97715.31;;;-5.34;100.00
22862;BME280;11598;50.652;6.172;2024-01-11T07:09:34;97732.81;;;-5.55;100.00
22862;BME280;11598;50.652;6.172;2024-01-11T07:19:34;97740.19;;;-5.77;100.00
22862;BME280;11598;50.652;6.172;2024-01-11T07:29:34;97750.38;;;-5.72;100.00
22862;BME280;11598;50.652;6.172;2024-01-11T07:39:35;97756.53;;;-5.47;100.00
22862;BME280;11598;50.652;6.172;2024-01-11T07:49:36;97730.50;;;-5.34;100.00
22862;BME280;11598;50.652;6.172;2024-01-11T07:59:36;97740.66;;;-5.31;100.00
22862;BME280;11598;50.652;6.172;2024-01-11T08:09:37;97735.47;;;-5.44;100.00
22862;BME280;11598;50.652;6.172;2024-01-11T08:19:39;97726.13;;;-5.50;100.00
22862;BME280;11598;50.652;6.172;2024-01-11T08:29:40;97749.94;;;-5.29;100.00
22862;BME280;11598;50.652;6.172;2024-01-11T08:39:40;97754.53;;;-4.82;100.00
22862;BME280;11598;50.652;6.172;2024-01-11T08:49:41;97767.59;;;-4.21;100.00
22862;BME280;11598;50.652;6.172;2024-01-11T08:59:41;97768.66;;;-3.71;97.89
22862;BME280;11598;50.652;6.172;2024-01-11T09:09:42;97758.56;;;-3.47;96.12
22862;BME280;11598;50.652;6.172;2024-01-11T09:19:42;97782.31;;;-3.31;95.36
22862;BME280;11598;50.652;6.172;2024-01-11T09:29:43;97760.28;;;-3.24;95.12
22862;BME280;11598;50.652;6.172;2024-01-11T09:39:44;97767.06;;;-3.14;95.94
22862;BME280;11598;50.652;6.172;2024-01-11T09:49:45;97800.16;;;-2.99;96.35
22862;BME280;11598;50.652;6.172;2024-01-11T09:59:49;97793.34;;;-2.69;95.14
22862;BME280;11598;50.652;6.172;2024-01-11T10:09:51;97791.63;;;-2.36;94.08
22862;BME280;11598;50.652;6.172;2024-01-11T10:19:53;97795.78;;;-2.03;93.61
22862;BME280;11598;50.652;6.172;2024-01-11T10:29:55;97784.59;;;-1.57;90.80
22862;BME280;11598;50.652;6.172;2024-01-11T10:39:57;97790.34;;;-1.24;89.74
22862;BME280;11598;50.652;6.172;2024-01-11T10:50:00;97791.72;;;-0.80;86.33
22862;BME280;11598;50.652;6.172;2024-01-11T11:00:01;97805.19;;;-0.61;84.01
22862;BME280;11598;50.652;6.172;2024-01-11T11:10:04;97806.06;;;-0.61;81.13
22862;BME280;11598;50.652;6.172;2024-01-11T11:20:07;97804.34;;;-0.62;81.16
22862;BME280;11598;50.652;6.172;2024-01-11T11:30:12;97814.47;;;-0.54;80.88
22862;BME280;11598;50.652;6.172;2024-01-11T11:40:13;97812.72;;;-0.45;79.31
22862;BME280;11598;50.652;6.172;2024-01-11T11:50:13;97813.53;;;-0.41;77.98
22862;BME280;11598;50.652;6.172;2024-01-11T12:00:15;97839.09;;;-0.46;78.63
22862;BME280;11598;50.652;6.172;2024-01-11T12:10:16;97838.59;;;-0.92;82.41
22862;BME280;11598;50.652;6.172;2024-01-11T12:20:17;97838.69;;;-1.11;84.42
22862;BME280;11598;50.652;6.172;2024-01-11T12:30:24;97839.47;;;-0.96;83.86
22862;BME280;11598;50.652;6.172;2024-01-11T12:40:24;97829.16;;;-0.81;82.88
22862;BME280;11598;50.652;6.172;2024-01-11T12:50:28;97823.13;;;-0.69;82.63
22862;BME280;11598;50.652;6.172;2024-01-11T13:00:28;97813.66;;;-0.59;82.44
22862;BME280;11598;50.652;6.172;2024-01-11T13:10:29;97801.72;;;-0.54;81.57
22862;BME280;11598;50.652;6.172;2024-01-11T13:20:29;97797.44;;;-0.51;80.46
22862;BME280;11598;50.652;6.172;2024-01-11T13:30:29;97806.75;;;-0.44;80.56
22862;BME280;11598;50.652;6.172;2024-01-11T13:40:30;97812.78;;;-0.55;81.25
22862;BME280;11598;50.652;6.172;2024-01-11T13:50:32;97829.81;;;-0.56;80.56
22862;BME280;11598;50.652;6.172;2024-01-11T14:00:32;97826.28;;;-0.43;78.96
22862;BME280;11598;50.652;6.172;2024-01-11T14:10:34;97827.81;;;-0.22;75.08
22862;BME280;11598;50.652;6.172;2024-01-11T14:20:34;97832.91;;;-0.22;74.36
22862;BME280;11598;50.652;6.172;2024-01-11T14:30:35;97839.97;;;-0.50;76.58
22862;BME280;11598;50.652;6.172;2024-01-11T14:40:35;97854.81;;;-1.01;79.97
22862;BME280;11598;50.652;6.172;2024-01-11T14:50:36;97864.44;;;-1.61;83.42
22862;BME280;11598;50.652;6.172;2024-01-11T15:00:36;97865.41;;;-2.13;85.45
22862;BME280;11598;50.652;6.172;2024-01-11T15:10:36;97856.13;;;-2.42;88.18
22862;BME280;11598;50.652;6.172;2024-01-11T15:20:37;97868.81;;;-2.66;89.79
22862;BME280;11598;50.652;6.172;2024-01-11T15:30:37;97878.97;;;-2.89;91.03
22862;BME280;11598;50.652;6.172;2024-01-11T15:40:37;97881.50;;;-3.03;92.11
22862;BME280;11598;50.652;6.172;2024-01-11T15:50:38;97889.94;;;-3.20;93.91
22862;BME280;11598;50.652;6.172;2024-01-11T16:00:38;97893.25;;;-3.41;94.84
22862;BME280;11598;50.652;6.172;2024-01-11T16:10:39;97901.63;;;-3.62;95.81
22862;BME280;11598;50.652;6.172;2024-01-11T16:20:39;97892.25;;;-3.69;96.29
22862;BME280;11598;50.652;6.172;2024-01-11T16:30:39;97904.91;;;-3.75;96.88
22862;BME280;11598;50.652;6.172;2024-01-11T16:40:40;97925.22;;;-3.78;97.73
22862;BME280;11598;50.652;6.172;2024-01-11T16:50:41;97936.09;;;-3.96;98.35
22862;BME280;11598;50.652;6.172;2024-01-11T17:00:42;97948.16;;;-3.69;97.67
22862;BME280;11598;50.652;6.172;2024-01-11T17:10:44;97934.47;;;-3.89;97.31
22862;BME280;11598;50.652;6.172;2024-01-11T17:20:44;97934.19;;;-4.28;98.75
22862;BME280;11598;50.652;6.172;2024-01-11T17:30:45;97939.09;;;-4.46;100.00
22862;BME280;11598;50.652;6.172;2024-01-11T17:40:45;97950.81;;;-4.60;100.00
22862;BME280;11598;50.652;6.172;2024-01-11T17:50:45;97940.56;;;-4.71;100.00
22862;BME280;11598;50.652;6.172;2024-01-11T18:00:46;97928.63;;;-4.80;100.00
22862;BME280;11598;50.652;6.172;2024-01-11T18:10:46;97929.34;;;-4.95;100.00
22862;BME280;11598;50.652;6.172;2024-01-11T18:20:47;97929.28;;;-5.01;100.00
22862;BME280;11598;50.652;6.172;2024-01-11T18:30:50;97940.97;;;-5.12;100.00
22862;BME280;11598;50.652;6.172;2024-01-11T18:40:51;97937.53;;;-5.19;100.00
22862;BME280;11598;50.652;6.172;2024-01-11T18:50:51;97936.63;;;-5.22;100.00
22862;BME280;11598;50.652;6.172;2024-01-11T19:00:52;97918.75;;;-5.35;100.00
22862;BME280;11598;50.652;6.172;2024-01-11T19:10:53;97907.59;;;-5.52;100.00
22862;BME280;11598;50.652;6.172;2024-01-11T19:20:54;97925.09;;;-5.69;100.00
22862;BME280;11598;50.652;6.172;2024-01-11T19:30:54;97935.00;;;-5.84;100.00
22862;BME280;11598;50.652;6.172;2024-01-11T19:40:55;97942.56;;;-5.86;100.00
22862;BME280;11598;50.652;6.172;2024-01-11T19:50:56;97954.66;;;-5.65;100.00
22862;BME280;11598;50.652;6.172;2024-01-11T20:00:56;97949.72;;;-5.56;100.00
22862;BME280;11598;50.652;6.172;2024-01-11T20:10:56;97944.94;;;-5.36;100.00
22862;BME280;11598;50.652;6.172;2024-01-11T20:20:57;97933.31;;;-5.17;100.00
22862;BME280;11598;50.652;6.172;2024-01-11T20:30:57;97928.53;;;-4.94;100.00
22862;BME280;11598;50.652;6.172;2024-01-11T20:40:58;97925.47;;;-4.60;100.00
22862;BME280;11598;50.652;6.172;2024-01-11T20:50:58;97930.91;;;-4.13;100.00
22862;BME280;11598;50.652;6.172;2024-01-11T21:00:59;97927.00;;;-3.60;100.00
22862;BME280;11598;50.652;6.172;2024-01-11T21:10:59;97928.88;;;-3.24;100.00
22862;BME280;11598;50.652;6.172;2024-01-11T21:21:00;97925.56;;;-2.92;100.00
22862;BME280;11598;50.652;6.172;2024-01-11T21:31:01;97919.72;;;-2.63;100.00
22862;BME280;11598;50.652;6.172;2024-01-11T21:41:02;97921.44;;;-2.47;100.00
22862;BME280;11598;50.652;6.172;2024-01-11T21:51:03;97928.22;;;-2.35;100.00
22862;BME280;11598;50.652;6.172;2024-01-11T22:01:04;97924.84;;;-2.23;100.00
22862;BME280;11598;50.652;6.172;2024-01-11T22:11:04;97912.94;;;-2.14;100.00
22862;BME280;11598;50.652;6.172;2024-01-11T22:21:05;97929.06;;;-2.07;100.00
22862;BME280;11598;50.652;6.172;2024-01-11T22:31:05;97916.31;;;-2.01;100.00
22862;BME280;11598;50.652;6.172;2024-01-11T22:41:06;97930.75;;;-1.97;100.00
22862;BME280;11598;50.652;6.172;2024-01-11T22:51:08;97927.34;;;-1.94;100.00
22862;BME280;11598;50.652;6.172;2024-01-11T23:01:08;97917.16;;;-1.91;100.00
22862;BME280;11598;50.652;6.172;2024-01-11T23:21:11;97910.34;;;-1.84;100.00
22862;BME280;11598;50.652;6.172;2024-01-11T23:31:11;97920.56;;;-1.83;100.00
22862;BME280;11598;50.652;6.172;2024-01-11T23:41:12;97898.47;;;-1.85;100.00
22862;BME280;11598;50.652;6.172;2024-01-11T23:51:12;97902.69;;;-1.86;100.00
